createdAt,value
2022-11-11T00:00:22.433Z,9.57
2022-11-11T00:03:08.747Z,8.90
2022-11-11T00:05:54.878Z,5.45
2022-11-11T00:08:41.018Z,9.45
2022-11-11T00:11:27.173Z,8.50
2022-11-11T00:14:13.363Z,9.40
2022-11-11T00:17:18.194Z,6.40
2022-11-11T00:20:24.428Z,9.43
2022-11-11T00:23:39.319Z,7.18
2022-11-11T00:26:39.209Z,6.18
2022-11-11T00:29:26.313Z,6.63
2022-11-11T00:32:24.762Z,11.70
2022-11-11T00:35:29.949Z,9.50
2022-11-11T00:38:34.893Z,6.25
2022-11-11T00:41:21.991Z,5.90
2022-11-11T00:44:08.017Z,7.10
2022-11-11T00:47:12.651Z,6.75
2022-11-11T00:50:17.334Z,5.28
2022-11-11T00:53:04.814Z,7.00
2022-11-11T00:55:51.094Z,6.88
2022-11-11T00:58:37.020Z,6.07
2022-11-11T01:01:23.257Z,7.35
2022-11-11T01:04:09.341Z,5.57
2022-11-11T01:06:55.469Z,6.82
2022-11-11T01:09:41.698Z,6.35
2022-11-11T01:12:28.031Z,4.72
2022-11-11T01:15:14.166Z,6.25
2022-11-11T01:18:00.450Z,8.48
2022-11-11T01:20:46.882Z,5.50
2022-11-11T01:23:34.369Z,5.07
2022-11-11T01:26:26.102Z,4.95
2022-11-11T01:29:16.401Z,5.72
2022-11-11T01:32:02.663Z,3.60
2022-11-11T01:34:48.780Z,8.05
2022-11-11T01:37:35.336Z,5.93
2022-11-11T01:40:21.819Z,4.50
2022-11-11T01:43:07.901Z,5.45
2022-11-11T01:45:55.085Z,4.57
2022-11-11T01:49:03.335Z,5.72
2022-11-11T01:51:52.502Z,3.83
2022-11-11T01:54:48.706Z,4.40
2022-11-11T01:57:37.618Z,6.93
2022-11-11T02:00:23.793Z,3.88
2022-11-11T02:03:11.269Z,4.25
2022-11-11T02:05:58.168Z,5.10
2022-11-11T02:08:44.679Z,7.03
2022-11-11T02:11:51.408Z,4.72
2022-11-11T02:14:43.015Z,4.80
2022-11-11T02:17:30.676Z,9.38
2022-11-11T02:20:19.426Z,7.75
2022-11-11T02:23:11.330Z,5.18
2022-11-11T02:28:43.818Z,6.97
2022-11-11T02:31:30.389Z,7.15
2022-11-11T02:34:16.639Z,6.65
2022-11-11T02:37:03.960Z,6.45
2022-11-11T02:40:06.732Z,4.47
2022-11-11T02:42:52.788Z,6.18
2022-11-11T02:45:39.309Z,5.97
2022-11-11T02:48:26.895Z,8.63
2022-11-11T02:51:13.410Z,5.65
2022-11-11T02:54:03.263Z,6.55
2022-11-11T02:57:07.672Z,6.30
2022-11-11T02:59:54.292Z,5.60
2022-11-11T03:02:40.409Z,5.57
2022-11-11T03:05:26.693Z,6.53
2022-11-11T03:08:12.844Z,6.22
2022-11-11T03:10:59.023Z,7.15
2022-11-11T03:13:45.067Z,5.70
2022-11-11T03:16:50.062Z,4.68
2022-11-11T03:19:36.798Z,6.85
2022-11-11T03:25:40.740Z,6.05
2022-11-11T03:28:27.307Z,6.07
2022-11-11T03:31:13.725Z,7.32
2022-11-11T03:34:18.063Z,7.13
2022-11-11T03:37:26.394Z,6.53
2022-11-11T03:40:12.748Z,6.13
2022-11-11T03:43:04.246Z,7.07
2022-11-11T03:45:56.375Z,8.93
2022-11-11T03:48:42.688Z,5.05
2022-11-11T03:51:29.000Z,5.30
2022-11-11T03:54:15.223Z,5.93
2022-11-11T03:57:19.885Z,6.43
2022-11-11T04:00:12.362Z,5.57
2022-11-11T04:03:27.794Z,6.57
2022-11-11T04:06:32.348Z,8.35
2022-11-11T04:09:37.098Z,4.47
2022-11-11T04:12:23.978Z,6.80
2022-11-11T04:15:28.619Z,8.00
2022-11-11T04:18:14.808Z,5.80
2022-11-11T04:21:19.767Z,5.53
2022-11-11T04:24:24.877Z,8.13
2022-11-11T04:27:12.175Z,6.72
2022-11-11T04:29:58.279Z,6.25
2022-11-11T04:32:47.400Z,9.88
2022-11-11T04:35:33.558Z,6.75
2022-11-11T04:38:38.362Z,5.80
2022-11-11T04:41:36.176Z,6.65
2022-11-11T04:44:48.983Z,5.97
2022-11-11T04:47:35.546Z,6.70
2022-11-11T04:50:21.590Z,5.28
2022-11-11T04:53:10.211Z,4.72
2022-11-11T04:56:14.705Z,4.40
2022-11-11T04:59:16.140Z,6.35
2022-11-11T05:02:20.511Z,4.22
2022-11-11T05:05:06.762Z,5.55
2022-11-11T05:08:12.114Z,5.50
2022-11-11T05:10:58.295Z,4.40
2022-11-11T05:14:03.004Z,4.82
2022-11-11T05:17:08.100Z,8.05
2022-11-11T05:20:12.905Z,5.47
2022-11-11T05:22:59.193Z,5.32
2022-11-11T05:25:45.316Z,4.15
2022-11-11T05:28:31.595Z,6.47
2022-11-11T05:31:17.849Z,11.45
2022-11-11T05:34:04.034Z,5.80
2022-11-11T05:36:50.197Z,7.07
2022-11-11T05:39:36.399Z,7.43
2022-11-11T05:42:22.589Z,11.23
2022-11-11T05:45:10.403Z,6.65
2022-11-11T05:48:00.080Z,6.13
2022-11-11T05:50:45.938Z,4.45
2022-11-11T05:53:33.962Z,4.10
2022-11-11T05:56:20.136Z,3.65
2022-11-11T05:59:06.567Z,5.63
2022-11-11T06:01:52.604Z,4.78
2022-11-11T06:04:38.851Z,7.30
2022-11-11T06:07:24.919Z,6.72
2022-11-11T06:10:30.000Z,4.03
2022-11-11T06:13:16.268Z,5.70
2022-11-11T06:16:03.026Z,3.58
2022-11-11T06:18:49.757Z,8.07
2022-11-11T06:21:55.971Z,6.40
2022-11-11T06:24:41.897Z,7.95
2022-11-11T06:27:28.034Z,5.80
2022-11-11T06:30:45.687Z,6.70
2022-11-11T06:33:21.659Z,7.43
2022-11-11T06:36:08.273Z,4.32
2022-11-11T06:38:54.285Z,4.38
2022-11-11T06:41:40.415Z,5.60
2022-11-11T06:44:26.539Z,5.07
2022-11-11T06:47:12.709Z,6.95
2022-11-11T06:49:58.913Z,4.80
2022-11-11T06:52:45.194Z,5.40
2022-11-11T06:55:31.480Z,6.28
2022-11-11T06:58:19.624Z,6.22
2022-11-11T07:01:06.591Z,9.10
2022-11-11T07:03:52.888Z,6.22
2022-11-11T07:06:40.326Z,6.72
2022-11-11T07:09:28.000Z,7.93
2022-11-11T07:12:13.899Z,7.47
2022-11-11T07:15:00.213Z,9.70
2022-11-11T07:17:46.299Z,8.35
2022-11-11T07:20:32.736Z,6.40
2022-11-11T07:23:18.987Z,10.35
2022-11-11T07:26:08.494Z,9.23
2022-11-11T07:28:54.378Z,12.45
2022-11-11T07:31:40.701Z,10.88
2022-11-11T07:34:28.698Z,10.40
2022-11-11T07:37:14.747Z,11.90
2022-11-11T07:40:01.255Z,10.98
2022-11-11T07:42:47.930Z,10.77
2022-11-11T07:45:34.038Z,13.10
2022-11-11T07:48:20.374Z,11.65
2022-11-11T07:51:06.723Z,8.43
2022-11-11T07:53:53.133Z,13.00
2022-11-11T07:56:39.341Z,12.40
2022-11-11T07:59:25.651Z,10.00
2022-11-11T08:02:12.387Z,14.52
2022-11-11T08:04:58.817Z,10.57
2022-11-11T08:07:45.157Z,15.27
2022-11-11T08:10:31.879Z,9.93
2022-11-11T08:13:36.723Z,9.63
2022-11-11T08:16:23.056Z,10.40
2022-11-11T08:19:09.159Z,8.93
2022-11-11T08:21:55.299Z,7.50
2022-11-11T08:25:02.751Z,15.45
2022-11-11T08:27:47.862Z,11.50
2022-11-11T08:30:34.265Z,12.13
2022-11-11T08:33:44.348Z,13.48
2022-11-11T08:36:27.082Z,15.38
2022-11-11T08:39:16.535Z,11.40
2022-11-11T08:42:03.208Z,10.43
2022-11-11T08:44:50.146Z,12.05
2022-11-11T08:47:37.101Z,16.30
2022-11-11T08:50:23.911Z,8.55
2022-11-11T08:53:10.592Z,16.67
2022-11-11T08:56:02.078Z,10.98
2022-11-11T08:58:51.199Z,12.50
2022-11-11T09:01:39.722Z,7.47
2022-11-11T09:07:32.440Z,7.22
2022-11-11T09:10:24.443Z,5.95
2022-11-11T09:13:10.769Z,5.13
2022-11-11T09:15:58.074Z,6.30
2022-11-11T09:18:44.203Z,4.70
2022-11-11T09:21:32.257Z,4.15
2022-11-11T09:24:18.237Z,5.63
2022-11-11T09:27:04.527Z,8.38
2022-11-11T09:29:50.789Z,6.90
2022-11-11T09:32:37.409Z,5.47
2022-11-11T09:35:23.829Z,4.47
2022-11-11T09:38:10.456Z,8.10
2022-11-11T09:41:15.321Z,5.97
2022-11-11T09:44:03.349Z,3.97
2022-11-11T09:47:09.933Z,7.57
2022-11-11T09:50:05.560Z,6.22
2022-11-11T09:53:00.512Z,4.20
2022-11-11T09:55:49.543Z,3.78
2022-11-11T09:58:38.654Z,3.28
2022-11-11T10:01:29.874Z,2.78
2022-11-11T10:04:31.165Z,3.22
2022-11-11T10:07:26.131Z,5.95
2022-11-11T10:10:33.354Z,4.93
2022-11-11T10:13:26.730Z,2.72
2022-11-11T10:16:15.857Z,2.67
2022-11-11T10:19:17.749Z,3.78
2022-11-11T10:22:13.107Z,5.30
2022-11-11T10:25:20.812Z,2.25
2022-11-11T10:28:07.995Z,2.78
2022-11-11T10:30:56.488Z,5.40
2022-11-11T10:33:49.890Z,6.10
2022-11-11T10:36:39.131Z,5.30
2022-11-11T10:39:29.788Z,3.47
2022-11-11T10:42:17.764Z,4.97
2022-11-11T10:45:09.952Z,4.93
2022-11-11T10:48:05.687Z,7.05
2022-11-11T10:50:53.909Z,3.85
2022-11-11T10:53:54.262Z,5.72
2022-11-11T10:56:43.788Z,8.38
2022-11-11T10:59:38.334Z,7.63
2022-11-11T11:02:27.273Z,5.53
2022-11-11T11:05:13.211Z,6.47
2022-11-11T11:08:02.863Z,7.93
2022-11-11T11:10:51.448Z,8.07
2022-11-11T11:13:52.565Z,6.40
2022-11-11T11:16:48.280Z,6.38
2022-11-11T11:19:34.478Z,6.78
2022-11-11T11:22:22.522Z,7.72
2022-11-11T11:25:10.998Z,12.98
2022-11-11T11:28:11.902Z,13.32
2022-11-11T11:31:02.789Z,10.43
2022-11-11T11:33:53.612Z,10.05
2022-11-11T11:36:39.592Z,9.85
2022-11-11T11:39:38.987Z,8.50
2022-11-11T11:42:33.015Z,12.18
2022-11-11T11:45:28.501Z,7.15
2022-11-11T11:48:50.125Z,11.80
2022-11-11T11:51:39.619Z,11.38
2022-11-11T11:54:44.280Z,11.15
2022-11-11T11:57:53.953Z,11.98
2022-11-11T12:00:46.834Z,10.75
2022-11-11T12:03:59.310Z,11.20
2022-11-11T12:09:40.846Z,9.65
2022-11-11T12:12:45.990Z,10.60
2022-11-11T12:15:47.474Z,14.95
2022-11-11T12:18:52.640Z,9.52
2022-11-11T12:21:57.550Z,8.15
2022-11-11T12:24:56.433Z,12.32
2022-11-11T12:28:04.981Z,8.00
2022-11-11T12:31:09.747Z,8.02
2022-11-11T12:34:02.093Z,12.45
2022-11-11T12:36:55.684Z,12.82
2022-11-11T12:40:00.853Z,9.05
2022-11-11T12:43:03.195Z,8.98
2022-11-11T12:45:52.756Z,9.13
2022-11-11T12:48:45.901Z,7.65
2022-11-11T12:51:32.018Z,16.73
2022-11-11T12:54:18.406Z,10.15
2022-11-11T12:57:13.308Z,11.73
2022-11-11T13:00:04.193Z,9.00
2022-11-11T13:03:09.251Z,9.48
2022-11-11T13:06:06.711Z,8.30
2022-11-11T13:09:03.093Z,9.35
2022-11-11T13:12:13.988Z,8.20
2022-11-11T13:15:19.444Z,9.80
2022-11-11T13:18:11.750Z,11.73
2022-11-11T13:23:44.357Z,8.63
2022-11-11T13:26:39.825Z,9.77
2022-11-11T13:29:36.336Z,6.45
2022-11-11T13:32:26.045Z,11.90
2022-11-11T13:35:20.838Z,5.53
2022-11-11T13:38:07.093Z,8.30
2022-11-11T13:40:54.975Z,5.90
2022-11-11T13:43:45.586Z,6.03
2022-11-11T13:46:34.696Z,6.63
2022-11-11T13:49:27.244Z,6.38
2022-11-11T13:52:25.213Z,5.90
2022-11-11T13:55:33.093Z,5.95
2022-11-11T13:58:24.358Z,7.00
2022-11-11T14:01:12.158Z,5.70
2022-11-11T14:03:59.738Z,5.47
2022-11-11T14:06:48.848Z,7.97
2022-11-11T14:09:54.996Z,7.13
2022-11-11T14:12:50.696Z,10.45
2022-11-11T14:15:42.909Z,11.50
2022-11-11T14:18:39.748Z,5.15
2022-11-11T14:21:48.617Z,6.25
2022-11-11T14:24:39.881Z,10.13
2022-11-11T14:27:28.121Z,6.25
2022-11-11T14:30:34.813Z,4.75
2022-11-11T14:33:35.925Z,5.22
2022-11-11T14:36:40.634Z,8.10
2022-11-11T14:39:29.938Z,9.30
2022-11-11T14:42:36.468Z,5.72
2022-11-11T14:45:31.567Z,7.97
2022-11-11T14:48:36.824Z,7.43
2022-11-11T14:51:41.637Z,6.97
2022-11-11T14:54:37.962Z,8.90
2022-11-11T14:57:25.768Z,5.15
2022-11-11T15:00:15.268Z,10.40
2022-11-11T15:03:04.652Z,5.30
2022-11-11T15:05:57.735Z,6.05
2022-11-11T15:09:03.441Z,7.07
2022-11-11T15:11:56.976Z,7.50
2022-11-11T15:14:48.136Z,3.83
2022-11-11T15:17:41.046Z,6.43
2022-11-11T15:20:42.463Z,6.38
2022-11-11T15:23:36.042Z,5.53
2022-11-11T15:26:27.335Z,5.63
2022-11-11T15:29:16.354Z,5.47
2022-11-11T15:32:17.824Z,9.45
2022-11-11T15:35:07.032Z,10.43
2022-11-11T15:37:54.831Z,6.30
2022-11-11T15:40:51.166Z,9.25
2022-11-11T15:43:40.073Z,11.35
2022-11-11T15:46:30.822Z,10.32
2022-11-11T15:49:36.888Z,7.18
2022-11-11T15:52:30.479Z,16.63
2022-11-11T15:55:37.190Z,19.27
2022-11-11T15:58:30.672Z,8.18
2022-11-11T16:01:17.052Z,9.70
2022-11-11T16:04:03.135Z,6.68
2022-11-11T16:06:50.026Z,9.77
2022-11-11T16:09:38.273Z,11.57
2022-11-11T16:12:26.522Z,9.38
2022-11-11T16:15:20.200Z,12.80
2022-11-11T16:18:10.841Z,9.38
2022-11-11T16:21:14.955Z,10.82
2022-11-11T16:24:01.450Z,8.90
2022-11-11T16:26:47.779Z,8.77
2022-11-11T16:29:37.280Z,13.35
2022-11-11T16:32:26.412Z,6.95
2022-11-11T16:35:27.020Z,14.20
2022-11-11T16:38:30.397Z,7.25
2022-11-11T16:41:28.216Z,8.68
2022-11-11T16:44:37.404Z,8.63
2022-11-11T16:47:43.960Z,11.27
2022-11-11T16:50:30.156Z,7.63
2022-11-11T16:53:26.812Z,11.23
2022-11-11T16:56:27.502Z,7.28
2022-11-11T16:59:17.035Z,10.38
2022-11-11T17:02:02.959Z,10.18
2022-11-11T17:04:53.737Z,14.65
2022-11-11T17:07:41.427Z,14.20
2022-11-11T17:10:28.979Z,15.20
2022-11-11T17:13:15.223Z,12.85
2022-11-11T17:16:07.690Z,12.93
2022-11-11T17:18:54.701Z,11.68
2022-11-11T17:21:41.362Z,16.42
2022-11-11T17:24:27.583Z,10.70
2022-11-11T17:27:13.750Z,17.63
2022-11-11T17:30:00.081Z,13.07
2022-11-11T17:32:49.177Z,14.43
2022-11-11T17:35:35.339Z,11.00
2022-11-11T17:38:21.728Z,22.45
2022-11-11T17:41:07.932Z,23.05
2022-11-11T17:43:54.118Z,25.00
2022-11-11T17:46:40.335Z,29.38
2022-11-11T17:49:50.214Z,28.95
2022-11-11T17:52:32.644Z,28.50
2022-11-11T17:55:19.010Z,27.50
2022-11-11T17:58:05.154Z,23.48
2022-11-11T18:00:51.381Z,24.35
2022-11-11T18:03:37.907Z,28.63
2022-11-11T18:06:23.999Z,29.27
2022-11-11T18:09:10.355Z,27.33
2022-11-11T18:11:56.746Z,23.27
2022-11-11T18:14:42.803Z,21.13
2022-11-11T18:17:29.201Z,22.48
2022-11-11T18:20:15.698Z,21.38
2022-11-11T18:23:01.922Z,19.05
2022-11-11T18:25:48.110Z,21.45
2022-11-11T18:28:38.117Z,18.85
2022-11-11T18:31:24.044Z,20.85
2022-11-11T18:34:10.325Z,22.92
2022-11-11T18:36:56.628Z,19.95
2022-11-11T18:39:42.924Z,26.08
2022-11-11T18:42:29.107Z,23.83
2022-11-11T18:45:15.388Z,21.10
2022-11-11T18:48:01.708Z,23.40
2022-11-11T18:50:55.022Z,21.02
2022-11-11T18:53:41.339Z,21.80
2022-11-11T18:56:28.283Z,23.42
2022-11-11T18:59:14.470Z,21.50
2022-11-11T19:02:00.638Z,23.38
2022-11-11T19:04:46.906Z,21.92
2022-11-11T19:07:33.187Z,27.63
2022-11-11T19:10:19.538Z,24.25
2022-11-11T19:13:05.650Z,23.33
2022-11-11T19:15:51.966Z,21.60
2022-11-11T19:18:38.390Z,31.50
2022-11-11T19:21:28.437Z,33.08
2022-11-11T19:24:15.292Z,32.00
2022-11-11T19:27:01.683Z,107.60
2022-11-11T19:29:47.939Z,142.10
2022-11-11T19:32:34.131Z,87.18
2022-11-11T19:35:20.624Z,94.25
2022-11-11T19:38:06.859Z,78.20
2022-11-11T19:40:53.040Z,92.30
2022-11-11T19:43:39.442Z,72.47
2022-11-11T19:46:27.703Z,83.47
2022-11-11T19:49:13.819Z,54.92
2022-11-11T19:52:00.081Z,50.92
2022-11-11T19:54:46.363Z,40.65
2022-11-11T19:57:35.099Z,29.17
2022-11-11T20:00:21.611Z,35.95
2022-11-11T20:03:07.845Z,33.00
2022-11-11T20:05:54.033Z,22.80
2022-11-11T20:08:40.336Z,25.30
2022-11-11T20:11:26.967Z,19.92
2022-11-11T20:14:13.270Z,18.55
2022-11-11T20:17:06.308Z,18.55
2022-11-11T20:19:59.223Z,20.52
2022-11-11T20:22:47.719Z,17.80
2022-11-11T20:25:37.860Z,16.23
2022-11-11T20:28:24.365Z,20.52
2022-11-11T20:31:11.879Z,17.13
2022-11-11T20:33:57.963Z,18.27
2022-11-11T20:36:44.282Z,17.25
2022-11-11T20:39:30.375Z,18.45
2022-11-11T20:42:16.757Z,18.25
2022-11-11T20:45:02.946Z,16.17
2022-11-11T20:47:49.162Z,19.35
2022-11-11T20:50:42.131Z,17.55
2022-11-11T20:53:30.407Z,16.75
2022-11-11T20:56:22.443Z,20.98
2022-11-11T20:59:10.222Z,17.60
2022-11-11T21:01:56.544Z,16.33
2022-11-11T21:04:42.872Z,18.10
2022-11-11T21:07:29.324Z,18.75
2022-11-11T21:10:15.570Z,30.10
2022-11-11T21:13:01.869Z,29.17
2022-11-11T21:15:48.148Z,33.00
2022-11-11T21:18:34.648Z,31.88
2022-11-11T21:21:34.553Z,45.20
2022-11-11T21:24:37.123Z,34.53
2022-11-11T21:27:31.383Z,39.70
2022-11-11T21:30:19.616Z,39.05
2022-11-11T21:33:08.893Z,33.50
2022-11-11T21:36:01.367Z,31.25
2022-11-11T21:38:47.801Z,31.85
2022-11-11T21:41:38.269Z,33.42
2022-11-11T21:44:24.236Z,32.05
2022-11-11T21:47:11.475Z,31.23
2022-11-11T21:49:57.513Z,31.42
2022-11-11T21:52:43.869Z,31.58
2022-11-11T21:55:52.284Z,33.97
2022-11-11T21:58:52.341Z,31.50
2022-11-11T22:01:40.811Z,27.50
2022-11-11T22:04:26.926Z,25.52
2022-11-11T22:07:18.822Z,30.05
2022-11-11T22:10:06.275Z,28.50
2022-11-11T22:12:52.721Z,28.02
2022-11-11T22:15:38.949Z,24.52
2022-11-11T22:18:25.449Z,24.65
2022-11-11T22:21:17.542Z,25.73
2022-11-11T22:24:04.755Z,28.52
2022-11-11T22:26:50.817Z,25.58
2022-11-11T22:29:36.983Z,27.15
2022-11-11T22:32:23.263Z,30.17
2022-11-11T22:35:09.490Z,28.85
2022-11-11T22:37:55.809Z,30.88
2022-11-11T22:40:42.193Z,25.52
2022-11-11T22:43:57.426Z,28.30
2022-11-11T22:46:35.597Z,29.60
2022-11-11T22:49:21.667Z,26.42
2022-11-11T22:52:08.120Z,31.13
2022-11-11T22:54:54.036Z,28.85
2022-11-11T22:57:40.448Z,30.60
2022-11-11T23:00:26.850Z,29.58
2022-11-11T23:03:13.229Z,25.55
2022-11-11T23:06:03.443Z,27.60
2022-11-11T23:08:49.601Z,41.42
2022-11-11T23:11:36.985Z,29.42
2022-11-11T23:14:23.457Z,46.70
2022-11-11T23:17:16.777Z,32.40
2022-11-11T23:20:02.664Z,31.50
2022-11-11T23:22:48.824Z,32.88
2022-11-11T23:25:35.141Z,31.67
2022-11-11T23:28:21.788Z,27.05
2022-11-11T23:31:09.694Z,29.20
2022-11-11T23:33:58.757Z,29.70
2022-11-11T23:36:44.595Z,31.15
2022-11-11T23:39:30.984Z,23.70
2022-11-11T23:42:17.334Z,27.95
2022-11-11T23:45:03.555Z,26.90
2022-11-11T23:47:49.777Z,22.98
2022-11-11T23:50:36.059Z,29.27
2022-11-11T23:53:22.441Z,28.20
2022-11-11T23:56:09.004Z,27.73
2022-11-11T23:58:55.047Z,28.15
